• Join FlightAware (Why Join?)
  • Login
  • US Flag 
11:59AM EDT


 

Airport Tracker/Info


-or-


 

Live Flight TrackerFlight Track Log ✈ CSN6819 ✈ 18-Nov-2013 ✈ ZWWW / URC - ZWTN / HTN

Flight Track Log - Related Links

Times and Time Zones

All times are in EST time to prevent confusion due to time zone crossing. See the CSN6819 flight status page for this flight to view local times or setup timezone preferences in your user account.

Time Position Orientation Groundspeed Altitude Reporting Facility
EST Latitude Longitude Course Direction KTS MPH feet Rate Location/Type
08:13AM 43.8127 87.3538 223° Southwest  Level Estimated
08:14AM 43.7182 87.2337 223° Southwest  Level Estimated
08:15AM 43.6236 87.1141 222° Southwest  Level Estimated
08:16AM 43.5288 86.9948 222° Southwest  Level Estimated
08:17AM 43.4339 86.8758 222° Southwest  Level Estimated
08:18AM 43.3389 86.7573 222° Southwest  Level Estimated
08:19AM 43.2438 86.6391 222° Southwest  Level Estimated
08:20AM 43.1485 86.5213 222° Southwest  Level Estimated
08:21AM 43.0532 86.4038 222° Southwest  Level Estimated
08:22AM 42.9577 86.2867 222° Southwest  Level Estimated
08:23AM 42.8620 86.1700 222° Southwest  Level Estimated
08:24AM 42.7663 86.0536 222° Southwest  Level Estimated
08:25AM 42.6705 85.9376 222° Southwest  Level Estimated
08:26AM 42.5745 85.8220 222° Southwest  Level Estimated
08:27AM 42.4784 85.7067 222° Southwest  Level Estimated
08:28AM 42.3822 85.5918 221° Southwest  Level Estimated
08:29AM 42.2859 85.4772 221° Southwest  Level Estimated
08:30AM 42.1895 85.3630 221° Southwest  Level Estimated
08:31AM 42.0929 85.2491 221° Southwest  Level Estimated
08:32AM 41.9963 85.1355 221° Southwest  Level Estimated
08:33AM 41.8995 85.0223 221° Southwest  Level Estimated
08:34AM 41.8027 84.9095 221° Southwest  Level Estimated
08:35AM 41.7057 84.7970 221° Southwest  Level Estimated
08:36AM 41.6086 84.6848 221° Southwest  Level Estimated
08:37AM 41.5114 84.5730 221° Southwest  Level Estimated
08:38AM 41.4141 84.4615 221° Southwest  Level Estimated
08:39AM 41.3167 84.3503 221° Southwest  Level Estimated
08:40AM 41.2191 84.2395 221° Southwest  Level Estimated
08:41AM 41.1215 84.1290 220° Southwest  Level Estimated
08:42AM 41.0238 84.0188 220° Southwest  Level Estimated
08:43AM 40.9259 83.9089 220° Southwest  Level Estimated
08:44AM 40.8280 83.7994 220° Southwest  Level Estimated
08:45AM 40.7299 83.6902 220° Southwest  Level Estimated
08:46AM 40.6318 83.5813 220° Southwest  Level Estimated
08:47AM 40.5336 83.4728 220° Southwest  Level Estimated
08:48AM 40.4352 83.3645 220° Southwest  Level Estimated
08:49AM 40.3368 83.2566 220° Southwest  Level Estimated
08:50AM 40.2382 83.1490 220° Southwest  Level Estimated
08:51AM 40.1395 83.0417 220° Southwest  Level Estimated
08:52AM 40.0408 82.9347 220° Southwest  Level Estimated
08:53AM 39.9420 82.8280 220° Southwest  Level Estimated
08:54AM 39.8430 82.7217 220° Southwest  Level Estimated
08:55AM 39.7440 82.6156 219° Southwest  Level Estimated
08:56AM 39.6448 82.5098 219° Southwest  Level Estimated
08:57AM 39.5456 82.4044 219° Southwest  Level Estimated
08:58AM 39.4463 82.2992 219° Southwest  Level Estimated
08:59AM 39.3468 82.1944 219° Southwest  Level Estimated
09:00AM 39.2473 82.0899 219° Southwest  Level Estimated
09:01AM 39.1477 81.9856 219° Southwest  Level Estimated
09:02AM 39.0480 81.8816 219° Southwest  Level Estimated
09:03AM 38.9482 81.7780 219° Southwest  Level Estimated
09:04AM 38.8483 81.6746 219° Southwest  Level Estimated
09:05AM 38.7483 81.5715 219° Southwest  Level Estimated
09:06AM 38.6483 81.4687 219° Southwest  Level Estimated
09:07AM 38.5481 81.3662 219° Southwest  Level Estimated
09:08AM 38.4478 81.2639 219° Southwest  Level Estimated
09:09AM 38.3475 81.1620 219° Southwest  Level Estimated
09:10AM 38.2471 81.0603 218° Southwest  Level Estimated
09:11AM 38.1466 80.9590 218° Southwest  Level Estimated
09:12AM 38.0460 80.8579 218° Southwest  Level Estimated
09:13AM 37.9453 80.7570 218° Southwest  Level Estimated
09:14AM 37.8445 80.6565 218° Southwest  Level Estimated
09:15AM 37.7437 80.5562 218° Southwest  Level Estimated
09:16AM 37.6427 80.4562 218° Southwest  Level Estimated
09:17AM 37.5417 80.3565 218° Southwest  Level Estimated
09:18AM 37.4406 80.2570 218° Southwest  Level Estimated
09:19AM 37.3394 80.1578 218° Southwest  Level Estimated
09:20AM 37.2381 80.0589 218° Southwest  Level Estimated
09:21AM 37.1368 79.9603 218° Southwest  Level Estimated
09:22AM 37.0385 79.8649 218° Southwest  Level Estimated
09:23AM 37.0385 79.8649 50° Northeast  Level Estimated
09:24AM 37.0385 79.8649 50° Northeast  Level Estimated
09:25AM 37.0385 79.8649 50° Northeast  Level Estimated
09:26AM 37.0385 79.8649 50° Northeast  Level Estimated
09:27AM 37.0385 79.8649 50° Northeast  Level Estimated
09:28AM 37.0385 79.8649 50° Northeast  Level Estimated
09:29AM 37.0385 79.8649 50° Northeast  Level Estimated
09:30AM 37.0385 79.8649 50° Northeast  Level Estimated
09:31AM 37.0385 79.8649 50° Northeast  Level Estimated
09:32AM 37.0385 79.8649 50° Northeast  Level Estimated
09:33AM 37.0385 79.8649 50° Northeast  Level Estimated
09:34AM 37.0385 79.8649 50° Northeast  Level Estimated
09:35AM 37.0385 79.8649 50° Northeast  Level Estimated
09:36AM 37.0385 79.8649 50° Northeast  Level Estimated
09:37AM 37.0385 79.8649 50° Northeast  Level Estimated
09:38AM 37.0385 79.8649 50° Northeast  Level Estimated